Time;durP1;ratioP1;P1;durP2;ratioP2;P2;SDS_P1;SDS_P2;PMS_P1;PMS_P2;Temp;Humidity;BMP_temperature;BMP_pressure;BME280_temperature;BME280_humidity;BME280_pressure;Samples;Min_cycle;Max_cycle;Signal;HPM_P1;HPM_P2
2022/03/15 00:01:30;;;;;;;11.23;6.47;;;4.00;99.90;;;;;;5007420;28;20048;-72
2022/03/15 00:04:02;;;;;;;11.60;6.57;;;4.00;99.90;;;;;;4991922;28;20050;-71
2022/03/15 00:06:36;;;;;;;11.70;6.22;;;4.00;99.90;;;;;;4991322;28;20042;-71
2022/03/15 00:09:07;;;;;;;9.38;6.15;;;4.00;99.90;;;;;;5007041;28;20493;-71
2022/03/15 00:11:40;;;;;;;9.02;5.60;;;4.00;99.90;;;;;;5007292;28;20046;-72
2022/03/15 00:14:14;;;;;;;12.40;7.60;;;4.00;99.90;;;;;;4991621;28;20117;-72
2022/03/15 00:16:46;;;;;;;9.75;6.70;;;3.90;99.90;;;;;;4990637;28;20048;-71
2022/03/15 00:19:18;;;;;;;6.93;5.35;;;3.90;99.90;;;;;;5007055;28;20489;-71
2022/03/15 00:21:50;;;;;;;8.82;5.43;;;4.00;99.90;;;;;;4990667;28;20049;-72
2022/03/15 00:24:22;;;;;;;7.35;4.57;;;4.00;99.90;;;;;;5006471;28;20051;-71
2022/03/15 00:26:54;;;;;;;6.88;4.15;;;4.00;99.90;;;;;;5006286;28;20062;-71
2022/03/15 00:29:26;;;;;;;10.82;4.20;;;4.00;99.90;;;;;;4992054;28;20113;-71
2022/03/15 00:31:58;;;;;;;16.00;4.07;;;4.00;99.90;;;;;;4990310;28;20141;-72
2022/03/15 00:34:30;;;;;;;9.02;3.80;;;4.00;99.90;;;;;;4990083;28;20043;-70
2022/03/15 00:37:02;;;;;;;12.27;4.72;;;4.00;99.90;;;;;;4991718;28;20045;-71
2022/03/15 00:39:38;;;;;;;14.07;4.47;;;4.00;99.90;;;;;;4990556;28;20050;-71
2022/03/15 00:42:05;;;;;;;9.38;4.40;;;4.00;99.90;;;;;;5006746;28;20050;-71
2022/03/15 00:44:37;;;;;;;7.95;4.25;;;4.00;99.90;;;;;;4974522;28;20043;-72
2022/03/15 00:47:04;;;;;;;9.23;4.45;;;4.10;99.90;;;;;;5006682;28;20042;-71
2022/03/15 00:49:36;;;;;;;13.10;7.32;;;4.10;99.90;;;;;;4991360;28;20092;-72
2022/03/15 00:52:08;;;;;;;11.68;5.90;;;4.10;99.90;;;;;;4991515;28;20038;-72
2022/03/15 00:54:40;;;;;;;12.98;8.02;;;4.10;99.90;;;;;;4991282;28;20509;-72
2022/03/15 00:57:11;;;;;;;15.63;7.40;;;4.00;99.90;;;;;;4990256;28;20038;-71
2022/03/15 00:59:43;;;;;;;14.30;6.53;;;3.90;99.90;;;;;;5006796;28;20046;-71
2022/03/15 01:02:17;;;;;;;13.30;6.93;;;3.70;99.90;;;;;;5005737;28;20043;-71
2022/03/15 01:04:49;;;;;;;9.55;6.25;;;3.60;99.90;;;;;;4991482;28;20043;-72
2022/03/15 01:07:22;;;;;;;12.98;6.57;;;3.50;99.90;;;;;;5005757;28;20046;-71
2022/03/15 01:09:53;;;;;;;10.95;5.53;;;3.50;99.90;;;;;;4991085;28;20042;-72
2022/03/15 01:12:26;;;;;;;11.23;6.65;;;3.50;99.90;;;;;;4993460;28;20066;-72
2022/03/15 01:14:57;;;;;;;10.43;5.80;;;3.50;99.90;;;;;;4994141;28;20044;-71
2022/03/15 01:17:29;;;;;;;11.10;6.43;;;3.50;99.90;;;;;;5009691;28;20046;-71
2022/03/15 01:20:03;;;;;;;10.07;5.82;;;3.50;99.90;;;;;;4995271;28;20489;-71
2022/03/15 01:22:36;;;;;;;8.95;5.53;;;3.60;99.90;;;;;;4993662;28;20061;-71
2022/03/15 01:25:09;;;;;;;8.18;5.28;;;3.50;99.90;;;;;;4994008;28;20060;-71
2022/03/15 01:27:40;;;;;;;9.40;5.63;;;3.50;99.90;;;;;;4993809;28;20061;-72
2022/03/15 01:30:12;;;;;;;8.70;5.50;;;3.60;99.90;;;;;;5010150;28;20070;-73
2022/03/15 01:32:46;;;;;;;;;;;3.60;99.90;;;;;;4994937;28;20548;-71
2022/03/15 01:35:19;;;;;;;8.13;4.93;;;3.60;99.90;;;;;;4994860;28;20012;-71
2022/03/15 01:37:51;;;;;;;8.55;4.97;;;3.50;99.90;;;;;;4993489;28;20616;-71
2022/03/15 01:40:23;;;;;;;8.52;4.55;;;3.60;99.90;;;;;;5009874;28;20042;-72
2022/03/15 01:42:55;;;;;;;7.78;4.57;;;3.60;99.90;;;;;;5008584;28;20074;-72
2022/03/15 01:45:36;;;;;;;6.90;4.60;;;3.60;99.90;;;;;;5009862;28;20042;-70
2022/03/15 01:48:09;;;;;;;8.25;5.25;;;3.60;99.90;;;;;;4993480;28;20046;-72
2022/03/15 01:50:37;;;;;;;9.77;5.18;;;3.60;99.90;;;;;;4993429;28;20121;-73
2022/03/15 01:53:09;;;;;;;7.68;4.75;;;3.60;99.90;;;;;;4992649;28;20049;-71
2022/03/15 01:55:39;;;;;;;7.40;5.18;;;3.60;99.90;;;;;;4994450;28;20044;-72
2022/03/15 01:58:11;;;;;;;9.93;5.60;;;3.70;99.90;;;;;;4993264;28;20504;-72
2022/03/15 02:00:45;;;;;;;7.78;4.97;;;3.70;99.90;;;;;;4992782;28;20046;-72
2022/03/15 02:03:17;;;;;;;7.65;5.45;;;3.70;99.90;;;;;;4992102;28;20512;-72
2022/03/15 02:05:49;;;;;;;8.32;5.80;;;3.60;99.90;;;;;;5007945;28;20053;-72
2022/03/15 02:08:20;;;;;;;8.77;5.57;;;3.60;99.90;;;;;;4992765;28;20038;-71
2022/03/15 02:10:52;;;;;;;9.13;4.63;;;3.60;99.90;;;;;;4993300;28;20057;-72
2022/03/15 02:13:24;;;;;;;6.32;4.43;;;3.60;99.90;;;;;;5008217;28;20047;-71
2022/03/15 02:15:56;;;;;;;9.10;4.55;;;3.50;99.90;;;;;;4993555;28;20050;-72
2022/03/15 02:18:28;;;;;;;6.78;5.03;;;3.50;99.90;;;;;;4993519;28;20042;-71
2022/03/15 02:21:00;;;;;;;9.02;5.00;;;3.50;99.90;;;;;;4992541;28;20457;-72
2022/03/15 02:23:32;;;;;;;10.68;5.07;;;3.50;99.90;;;;;;4992546;28;20047;-72
2022/03/15 02:26:04;;;;;;;8.18;4.85;;;3.50;99.90;;;;;;5008399;28;20054;-71
2022/03/15 02:28:36;;;;;;;6.97;4.57;;;3.50;99.90;;;;;;4992998;28;20699;-71
2022/03/15 02:31:08;;;;;;;5.13;3.53;;;3.50;99.90;;;;;;5007872;28;20042;-72
2022/03/15 02:33:40;;;;;;;7.45;4.28;;;3.50;99.90;;;;;;5007845;28;20142;-72
2022/03/15 02:36:15;;;;;;;;;;;3.50;99.90;;;;;;5007768;28;20038;-72
2022/03/15 02:38:47;;;;;;;6.10;3.88;;;3.50;99.90;;;;;;4992207;28;20390;-72
2022/03/15 02:41:19;;;;;;;6.80;4.03;;;3.50;99.90;;;;;;5007384;28;20039;-72
2022/03/15 02:43:51;;;;;;;7.07;3.90;;;3.50;99.90;;;;;;4991372;28;20507;-71
2022/03/15 02:46:30;;;;;;;4.50;3.15;;;3.50;99.90;;;;;;4993045;28;20420;-71
2022/03/15 02:49:02;;;;;;;7.13;3.83;;;3.50;99.90;;;;;;5008159;28;20065;-72
2022/03/15 02:51:35;;;;;;;5.93;3.72;;;3.50;99.90;;;;;;4991602;28;20050;-72
2022/03/15 02:54:08;;;;;;;5.65;3.80;;;3.50;99.90;;;;;;4992437;28;20417;-72
2022/03/15 02:56:46;;;;;;;8.23;4.32;;;3.40;99.90;;;;;;5007200;28;20042;-71
2022/03/15 02:59:19;;;;;;;5.03;3.80;;;3.40;99.90;;;;;;4992862;28;20044;-71
2022/03/15 03:01:51;;;;;;;6.25;4.15;;;3.40;99.90;;;;;;4992885;28;20046;-73
2022/03/15 03:04:23;;;;;;;6.60;4.25;;;3.40;99.90;;;;;;5007286;28;20513;-72
2022/03/15 03:06:55;;;;;;;6.47;4.13;;;3.40;99.90;;;;;;5007105;28;20046;-72
2022/03/15 03:09:27;;;;;;;7.22;4.20;;;3.40;99.90;;;;;;5007277;28;20046;-71
2022/03/15 03:11:59;;;;;;;5.80;3.90;;;3.40;99.90;;;;;;4991278;28;20046;-71
2022/03/15 03:14:34;;;;;;;5.05;3.40;;;3.30;99.90;;;;;;5006898;28;20056;-72
2022/03/15 03:17:06;;;;;;;5.90;4.10;;;3.40;99.90;;;;;;4991089;28;20126;-71
2022/03/15 03:19:38;;;;;;;7.07;4.88;;;3.30;99.90;;;;;;4992441;28;20042;-71
2022/03/15 03:22:11;;;;;;;20.15;9.55;;;3.30;99.90;;;;;;4992472;28;20046;-70
2022/03/15 03:24:42;;;;;;;18.00;10.18;;;3.30;99.90;;;;;;4991989;28;20059;-72
2022/03/15 03:27:14;;;;;;;20.33;8.95;;;3.30;99.90;;;;;;4990879;28;20053;-71
2022/03/15 03:29:46;;;;;;;9.48;5.82;;;3.20;99.90;;;;;;4991112;28;20608;-71
2022/03/15 03:32:18;;;;;;;7.45;4.80;;;3.20;99.90;;;;;;4992161;28;20049;-72
2022/03/15 03:34:49;;;;;;;7.28;4.40;;;3.20;99.90;;;;;;4991049;28;20046;-72
2022/03/15 03:37:22;;;;;;;6.13;4.32;;;3.20;99.90;;;;;;4990689;28;20042;-70
2022/03/15 03:39:54;;;;;;;13.23;5.88;;;3.20;99.90;;;;;;5007072;28;20137;-71
2022/03/15 03:42:26;;;;;;;9.82;6.32;;;3.20;99.90;;;;;;4991663;28;20042;-72
2022/03/15 03:44:57;;;;;;;7.47;4.57;;;3.20;99.90;;;;;;4992059;28;20053;-72
2022/03/15 03:47:29;;;;;;;11.32;5.20;;;3.20;99.90;;;;;;4991903;28;20039;-72
2022/03/15 03:50:04;;;;;;;7.78;4.40;;;3.20;99.90;;;;;;4990485;28;20053;-71
2022/03/15 03:52:31;;;;;;;6.97;4.18;;;3.20;99.90;;;;;;4991422;28;20484;-71
2022/03/15 03:55:03;;;;;;;8.25;4.55;;;3.10;99.90;;;;;;4990882;28;20416;-72
2022/03/15 03:57:37;;;;;;;9.30;4.72;;;3.10;99.90;;;;;;4990562;28;20038;-71
2022/03/15 04:00:09;;;;;;;8.32;5.18;;;3.10;99.90;;;;;;4991847;28;20053;-72
2022/03/15 04:02:42;;;;;;;7.05;5.20;;;3.10;99.90;;;;;;5005516;28;20058;-72
2022/03/15 04:05:16;;;;;;;9.55;5.43;;;3.10;99.90;;;;;;4975048;28;20141;-72
2022/03/15 04:07:47;;;;;;;;;;;3.10;99.90;;;;;;4990912;28;20137;-71
2022/03/15 04:10:15;;;;;;;9.25;5.55;;;3.10;99.90;;;;;;5006632;28;20032;-71
2022/03/15 04:12:47;;;;;;;11.80;6.80;;;3.10;99.90;;;;;;4989692;28;20053;-71
2022/03/15 04:15:20;;;;;;;9.65;5.93;;;3.10;99.90;;;;;;4991155;28;20154;-71
2022/03/15 04:17:51;;;;;;;10.30;6.30;;;3.10;99.90;;;;;;4990216;28;20038;-71
2022/03/15 04:20:25;;;;;;;15.95;6.82;;;3.10;99.90;;;;;;5006885;28;20046;-72
2022/03/15 04:22:56;;;;;;;9.55;5.70;;;3.20;99.90;;;;;;4991384;28;20622;-71
2022/03/15 04:25:29;;;;;;;8.98;5.40;;;3.10;99.90;;;;;;4990644;28;20146;-71
2022/03/15 04:28:01;;;;;;;11.40;5.82;;;3.10;99.90;;;;;;4990572;28;20793;-71
2022/03/15 04:30:33;;;;;;;6.28;4.60;;;3.10;99.90;;;;;;5006478;28;20129;-71
2022/03/15 04:33:04;;;;;;;6.15;4.75;;;3.10;99.90;;;;;;4989879;28;20045;-71
2022/03/15 04:35:36;;;;;;;8.27;4.75;;;3.10;99.90;;;;;;4975077;28;20141;-71
2022/03/15 04:38:03;;;;;;;8.77;5.00;;;3.10;99.90;;;;;;5006758;28;20125;-71
2022/03/15 04:40:35;;;;;;;9.15;4.18;;;3.10;99.90;;;;;;5006163;28;20044;-71
2022/03/15 04:43:06;;;;;;;8.20;4.70;;;3.10;99.90;;;;;;4991317;28;20038;-71
2022/03/15 04:45:38;;;;;;;9.18;5.20;;;3.10;99.90;;;;;;4992486;28;20531;-72
2022/03/15 04:48:10;;;;;;;6.68;4.72;;;3.20;99.90;;;;;;4994538;28;20042;-72
2022/03/15 04:50:42;;;;;;;7.65;5.20;;;3.20;99.90;;;;;;4995815;28;20042;-71
2022/03/15 04:53:14;;;;;;;8.68;6.40;;;3.20;99.90;;;;;;4993992;28;20129;-72
2022/03/15 04:55:47;;;;;;;9.57;6.35;;;3.20;99.90;;;;;;4979351;28;20417;-72
2022/03/15 04:58:18;;;;;;;17.88;8.45;;;3.30;99.90;;;;;;5010177;28;20125;-71
2022/03/15 05:00:50;;;;;;;12.43;7.28;;;3.30;99.90;;;;;;5010540;28;20046;-71
2022/03/15 05:03:22;;;;;;;12.35;6.82;;;3.30;99.90;;;;;;5007092;28;20050;-71
2022/03/15 05:05:53;;;;;;;8.88;6.05;;;3.30;99.90;;;;;;5001492;28;20046;-73
2022/03/15 05:08:25;;;;;;;15.38;11.10;;;3.30;99.90;;;;;;4993001;28;20043;-72
2022/03/15 05:11:06;;;;;;;10.48;6.95;;;3.20;99.90;;;;;;4994179;28;20066;-71
2022/03/15 05:13:42;;;;;;;13.50;6.38;;;3.20;99.90;;;;;;4991896;28;20046;-71
2022/03/15 05:16:18;;;;;;;11.85;7.50;;;3.20;99.90;;;;;;4993933;28;20038;-71
2022/03/15 05:18:53;;;;;;;10.15;6.72;;;3.30;99.90;;;;;;4995529;28;20503;-71
2022/03/15 05:21:25;;;;;;;9.15;7.00;;;3.30;99.90;;;;;;4994533;28;20515;-71
2022/03/15 05:23:56;;;;;;;9.25;6.53;;;3.20;99.90;;;;;;5009140;28;20050;-71
2022/03/15 05:26:28;;;;;;;11.35;6.45;;;3.30;99.90;;;;;;4976391;28;20122;-71
2022/03/15 05:29:00;;;;;;;13.45;7.65;;;3.30;99.90;;;;;;4974610;28;20074;-71
2022/03/15 05:31:32;;;;;;;11.48;7.70;;;3.30;99.90;;;;;;5002616;28;20080;-71
2022/03/15 05:34:04;;;;;;;11.68;7.05;;;3.20;99.90;;;;;;4992761;28;20049;-72
2022/03/15 05:36:36;;;;;;;14.90;7.03;;;3.10;99.90;;;;;;4994672;28;20046;-71
2022/03/15 05:39:07;;;;;;;20.55;9.35;;;3.10;99.90;;;;;;4994756;28;20404;-71
2022/03/15 05:41:40;;;;;;;37.17;22.23;;;3.10;99.90;;;;;;4994724;28;20424;-71
2022/03/15 05:44:12;;;;;;;31.90;19.40;;;3.10;99.90;;;;;;4993612;28;20589;-70
2022/03/15 05:46:44;;;;;;;17.08;10.20;;;3.10;99.90;;;;;;4991993;28;20043;-71
2022/03/15 05:49:16;;;;;;;16.33;8.88;;;3.10;99.90;;;;;;4991294;28;20501;-71
2022/03/15 05:51:49;;;;;;;;;;;3.10;99.90;;;;;;4993241;28;20125;-71
2022/03/15 05:54:21;;;;;;;15.13;7.65;;;3.10;99.90;;;;;;4991550;28;19928;-71
2022/03/15 05:56:53;;;;;;;11.55;7.55;;;3.20;99.90;;;;;;4992191;28;20404;-70
2022/03/15 05:59:24;;;;;;;10.13;7.82;;;3.20;99.90;;;;;;4988726;28;20045;-71
2022/03/15 06:01:56;;;;;;;20.10;8.02;;;3.20;99.90;;;;;;4987930;28;20043;-72
2022/03/15 06:04:28;;;;;;;23.35;8.07;;;3.30;99.90;;;;;;4982378;28;20524;-71
2022/03/15 06:07:01;;;;;;;13.13;7.47;;;3.30;99.90;;;;;;5009801;28;20069;-72
2022/03/15 06:09:33;;;;;;;11.70;6.90;;;3.30;99.90;;;;;;4977920;28;20141;-72
2022/03/15 06:12:07;;;;;;;20.33;6.95;;;3.30;99.90;;;;;;5002908;28;20046;-71
2022/03/15 06:14:38;;;;;;;17.98;7.03;;;3.40;99.90;;;;;;4991159;28;20041;-71
2022/03/15 06:17:10;;;;;;;14.90;7.07;;;3.40;99.90;;;;;;4992395;28;20137;-70
2022/03/15 06:19:42;;;;;;;14.38;7.28;;;3.40;99.90;;;;;;5008614;28;20048;-71
2022/03/15 06:22:13;;;;;;;11.77;7.05;;;3.40;99.90;;;;;;4996037;28;20046;-71
2022/03/15 06:24:45;;;;;;;10.25;7.25;;;3.50;99.90;;;;;;5011476;28;20053;-72
2022/03/15 06:27:17;;;;;;;9.48;6.30;;;3.50;99.90;;;;;;5028029;28;20408;-71
2022/03/15 06:29:50;;;;;;;12.18;7.45;;;3.50;99.90;;;;;;5011558;28;20497;-71
2022/03/15 06:32:18;;;;;;;8.88;6.18;;;3.60;99.90;;;;;;5011431;28;20668;-72
2022/03/15 06:34:50;;;;;;;9.88;7.45;;;3.70;99.90;;;;;;5003096;28;20092;-72
2022/03/15 06:37:21;;;;;;;11.77;7.47;;;3.80;99.90;;;;;;4989324;28;20038;-71
2022/03/15 06:39:54;;;;;;;13.45;7.35;;;3.90;99.90;;;;;;4991881;28;20043;-72
2022/03/15 06:42:27;;;;;;;14.52;7.68;;;4.00;99.90;;;;;;4988749;28;20045;-72
2022/03/15 06:44:59;;;;;;;8.82;5.03;;;4.00;99.90;;;;;;4984063;28;20533;-71
2022/03/15 06:47:31;;;;;;;11.82;5.85;;;4.10;99.90;;;;;;4977720;28;20038;-72
2022/03/15 06:50:07;;;;;;;12.43;7.57;;;4.20;99.90;;;;;;4988667;28;20048;-72
2022/03/15 06:52:40;;;;;;;8.48;5.95;;;4.20;99.90;;;;;;4987758;28;20045;-71
2022/03/15 06:55:13;;;;;;;11.38;6.70;;;4.40;99.90;;;;;;5004224;28;20042;-71
2022/03/15 06:57:45;;;;;;;8.65;5.85;;;4.50;99.90;;;;;;5000499;28;20045;-71
2022/03/15 07:00:18;;;;;;;9.10;6.77;;;4.50;99.90;;;;;;4982992;28;20390;-73
2022/03/15 07:02:50;;;;;;;8.02;5.72;;;4.60;99.90;;;;;;5008657;28;20117;-71
2022/03/15 07:05:17;;;;;;;9.48;6.40;;;4.60;99.90;;;;;;4993130;28;20059;-72
2022/03/15 07:07:43;;;;;;;13.07;6.28;;;4.70;99.90;;;;;;4988952;28;20125;-72
2022/03/15 07:10:17;;;;;;;11.98;6.55;;;4.70;99.90;;;;;;4989802;28;20408;-71
2022/03/15 07:12:49;;;;;;;7.88;5.68;;;4.70;99.90;;;;;;4990038;28;20047;-71
2022/03/15 07:15:17;;;;;;;10.25;6.43;;;4.70;99.90;;;;;;4994415;28;20117;-72
2022/03/15 07:17:54;;;;;;;8.05;6.18;;;4.70;99.90;;;;;;4995696;28;20916;-71
2022/03/15 07:20:27;;;;;;;11.13;6.20;;;4.80;99.90;;;;;;5001241;28;20048;-71
2022/03/15 07:22:59;;;;;;;10.20;6.38;;;4.80;99.90;;;;;;4967585;28;20053;-71
2022/03/15 07:25:26;;;;;;;8.80;6.10;;;4.80;99.90;;;;;;5000505;28;20050;-72
2022/03/15 07:27:58;;;;;;;7.38;5.70;;;4.90;99.90;;;;;;5007091;28;20116;-72
2022/03/15 07:30:29;;;;;;;8.13;6.50;;;4.90;99.90;;;;;;4991397;28;20121;-71
2022/03/15 07:33:01;;;;;;;9.27;6.95;;;5.00;99.90;;;;;;4998598;28;20042;-71
2022/03/15 07:35:34;;;;;;;8.20;5.67;;;5.00;99.90;;;;;;5006165;28;20034;-73
2022/03/15 07:38:06;;;;;;;12.23;7.72;;;5.10;99.90;;;;;;4991708;28;20038;-71
2022/03/15 07:40:39;;;;;;;12.98;8.18;;;5.10;99.90;;;;;;4990948;28;20125;-72
2022/03/15 07:43:11;;;;;;;13.93;8.35;;;5.20;99.90;;;;;;4991573;28;20057;-72
2022/03/15 07:45:43;;;;;;;12.75;7.47;;;5.20;99.90;;;;;;4992245;28;20052;-71
2022/03/15 07:48:15;;;;;;;11.40;8.00;;;5.20;99.90;;;;;;4991369;28;20038;-72
2022/03/15 07:50:49;;;;;;;11.18;8.00;;;5.20;99.90;;;;;;4992135;28;20050;-72
2022/03/15 07:53:22;;;;;;;10.70;8.48;;;5.30;99.90;;;;;;4993081;28;20042;-72
2022/03/15 07:55:54;;;;;;;81.45;45.72;;;5.30;99.90;;;;;;5006226;28;20121;-72
2022/03/15 07:58:27;;;;;;;35.43;20.73;;;5.20;99.90;;;;;;4957965;28;20146;-72
2022/03/15 08:00:59;;;;;;;21.73;14.50;;;5.30;99.90;;;;;;5006130;28;20046;-72
2022/03/15 08:03:31;;;;;;;16.95;11.38;;;5.30;99.90;;;;;;4989077;28;20038;-72
2022/03/15 08:06:02;;;;;;;14.07;9.07;;;5.30;99.90;;;;;;5006560;28;20043;-72
2022/03/15 08:08:34;;;;;;;14.13;9.88;;;5.40;99.90;;;;;;4990278;28;20133;-72
2022/03/15 08:11:06;;;;;;;16.30;8.27;;;5.40;99.90;;;;;;4991117;28;20129;-72
2022/03/15 08:13:38;;;;;;;11.82;8.02;;;5.50;99.90;;;;;;5005876;28;20042;-72
2022/03/15 08:16:09;;;;;;;19.13;9.23;;;5.60;99.90;;;;;;4990378;28;20573;-72
2022/03/15 08:18:41;;;;;;;23.23;16.73;;;5.60;99.90;;;;;;4985742;28;20501;-72
2022/03/15 08:21:13;;;;;;;36.67;20.98;;;5.60;99.90;;;;;;4995467;28;20118;-73
2022/03/15 08:23:46;;;;;;;14.35;9.60;;;5.70;99.90;;;;;;4987776;28;20133;-72
2022/03/15 08:26:18;;;;;;;11.70;8.23;;;5.80;99.90;;;;;;5006063;28;20048;-72
2022/03/15 08:28:50;;;;;;;15.75;9.15;;;5.80;99.90;;;;;;4991621;28;20465;-72
2022/03/15 08:31:17;;;;;;;13.05;8.32;;;6.00;99.90;;;;;;4990671;28;20052;-71
2022/03/15 08:33:49;;;;;;;14.48;9.98;;;6.00;99.90;;;;;;4990716;28;20040;-72
2022/03/15 08:36:21;;;;;;;17.10;10.95;;;6.10;99.90;;;;;;4991194;28;20435;-72
2022/03/15 08:38:53;;;;;;;13.88;8.65;;;6.30;99.90;;;;;;4991625;28;20501;-72
2022/03/15 08:41:25;;;;;;;15.98;8.93;;;6.40;99.90;;;;;;4989528;28;20065;-73
2022/03/15 08:43:56;;;;;;;12.05;9.27;;;6.50;99.90;;;;;;4991497;28;20046;-72
2022/03/15 08:46:28;;;;;;;15.52;8.40;;;6.70;99.90;;;;;;4973306;28;20039;-72
2022/03/15 08:48:55;;;;;;;13.30;7.72;;;6.80;99.90;;;;;;4991548;28;20513;-72
2022/03/15 08:51:27;;;;;;;9.60;7.47;;;6.90;99.90;;;;;;5005985;28;20074;-73
2022/03/15 08:54:00;;;;;;;15.38;7.47;;;7.00;99.90;;;;;;4991664;28;20038;-72
2022/03/15 08:56:32;;;;;;;13.95;7.70;;;7.10;99.90;;;;;;4983515;28;20038;-72
2022/03/15 08:59:03;;;;;;;20.52;8.73;;;7.20;99.90;;;;;;4996058;28;20567;-72
2022/03/15 09:01:30;;;;;;;15.40;7.35;;;7.30;99.90;;;;;;4992137;28;20038;-72
2022/03/15 09:04:02;;;;;;;7.70;5.00;;;7.50;99.90;;;;;;4990521;28;20138;-72
2022/03/15 09:06:34;;;;;;;5.63;4.70;;;7.60;99.90;;;;;;4997151;28;20057;-72
2022/03/15 09:09:05;;;;;;;6.43;4.43;;;7.80;99.90;;;;;;4987991;28;20046;-72
2022/03/15 09:11:37;;;;;;;6.60;4.63;;;8.00;99.90;;;;;;4996553;28;20041;-72
2022/03/15 09:14:09;;;;;;;5.88;4.60;;;8.10;99.90;;;;;;4995006;28;20045;-72
2022/03/15 09:16:41;;;;;;;6.00;4.25;;;8.10;99.90;;;;;;4982824;28;20473;-72
2022/03/15 09:19:13;;;;;;;6.00;3.97;;;8.30;99.90;;;;;;4983180;28;20043;-72
2022/03/15 09:21:45;;;;;;;8.30;4.03;;;8.40;99.90;;;;;;4984199;28;20061;-72
2022/03/15 09:24:17;;;;;;;12.35;4.82;;;8.50;99.90;;;;;;4994458;28;20122;-73
2022/03/15 09:26:49;;;;;;;8.20;4.43;;;8.50;99.90;;;;;;4985519;28;20045;-72
2022/03/15 09:29:21;;;;;;;6.43;4.43;;;8.60;99.90;;;;;;5010542;28;20042;-72
2022/03/15 09:31:53;;;;;;;5.75;4.15;;;8.60;99.90;;;;;;5013747;28;20578;-72
2022/03/15 09:34:26;;;;;;;6.38;3.78;;;8.70;99.90;;;;;;5009289;28;20029;-72
2022/03/15 09:36:59;;;;;;;8.65;4.65;;;8.80;99.90;;;;;;4999484;28;20038;-72
2022/03/15 09:39:32;;;;;;;7.43;4.60;;;8.90;99.90;;;;;;4987476;28;20038;-72
2022/03/15 09:42:08;;;;;;;6.68;4.10;;;9.00;99.90;;;;;;4985775;28;20126;-72
2022/03/15 09:44:41;;;;;;;5.35;4.43;;;9.00;99.90;;;;;;4983169;28;20038;-72
2022/03/15 09:47:17;;;;;;;7.15;4.20;;;9.10;99.90;;;;;;4999004;28;20042;-73
2022/03/15 09:49:51;;;;;;;13.88;5.20;;;9.10;99.90;;;;;;4977139;28;20039;-72
2022/03/15 09:52:24;;;;;;;6.78;4.25;;;9.20;99.90;;;;;;4986119;28;20049;-72
2022/03/15 09:54:56;;;;;;;4.78;3.63;;;9.30;99.90;;;;;;5003957;28;20038;-72
2022/03/15 09:57:30;;;;;;;7.70;4.15;;;9.30;99.90;;;;;;5028036;28;20214;-72
2022/03/15 10:00:04;;;;;;;5.10;3.45;;;9.40;99.90;;;;;;5015603;28;20106;-72
2022/03/15 10:02:43;;;;;;;5.47;3.38;;;9.50;99.90;;;;;;4990478;28;20097;-71
2022/03/15 10:05:15;;;;;;;4.68;3.30;;;9.50;99.90;;;;;;4992195;28;20054;-72
2022/03/15 10:07:47;;;;;;;4.55;3.53;;;9.50;99.90;;;;;;4973538;28;20858;-72
2022/03/15 10:10:19;;;;;;;5.45;3.42;;;9.60;99.90;;;;;;4992129;28;20046;-72
2022/03/15 10:12:51;;;;;;;4.82;3.47;;;9.60;99.90;;;;;;4977500;28;20421;-73
2022/03/15 10:15:24;;;;;;;5.15;3.30;;;9.60;99.90;;;;;;4972268;28;20039;-72
2022/03/15 10:18:04;;;;;;;;;;;9.60;99.90;;;;;;4974315;28;20043;-72
2022/03/15 10:20:42;;;;;;;;;;;9.70;99.90;;;;;;4974573;28;20021;-72
2022/03/15 10:23:16;;;;;;;4.22;2.80;;;9.70;99.90;;;;;;4989277;28;19926;-72
2022/03/15 10:25:50;;;;;;;5.80;3.05;;;9.80;99.90;;;;;;4991472;28;20129;-72
2022/03/15 10:28:22;;;;;;;4.68;2.75;;;9.90;99.90;;;;;;5012067;28;20049;-72
2022/03/15 10:30:54;;;;;;;5.43;2.80;;;10.00;99.90;;;;;;4995227;28;20042;-72
2022/03/15 10:33:27;;;;;;;3.47;2.75;;;10.00;99.90;;;;;;4990387;28;20046;-72
2022/03/15 10:35:54;;;;;;;5.65;2.83;;;10.00;99.90;;;;;;4998255;28;20133;-72
2022/03/15 10:38:26;;;;;;;4.05;2.70;;;10.00;99.90;;;;;;4986311;28;20400;-72
2022/03/15 10:40:57;;;;;;;4.93;2.67;;;10.00;99.90;;;;;;5002084;28;20080;-71
2022/03/15 10:43:29;;;;;;;3.45;2.20;;;10.00;99.90;;;;;;4993001;28;20042;-72
2022/03/15 10:46:01;;;;;;;3.47;2.40;;;10.00;99.90;;;;;;4991023;28;20149;-72
2022/03/15 10:48:35;;;;;;;4.78;2.38;;;10.00;99.90;;;;;;4990538;28;20531;-72
2022/03/15 10:51:04;;;;;;;4.20;2.30;;;10.00;99.90;;;;;;4988114;28;20109;-72
2022/03/15 10:53:36;;;;;;;8.82;2.50;;;10.10;99.90;;;;;;4956675;28;20094;-72
2022/03/15 10:56:14;;;;;;;2.70;2.28;;;10.20;99.90;;;;;;4973758;28;20049;-72
2022/03/15 10:58:47;;;;;;;3.88;2.38;;;10.20;99.90;;;;;;4981922;28;20048;-72
2022/03/15 11:01:23;;;;;;;3.60;2.60;;;10.30;99.90;;;;;;4987781;28;20118;-72
2022/03/15 11:04:10;;;;;;;4.20;2.80;;;10.30;99.90;;;;;;4986972;28;20076;-72
2022/03/15 11:06:50;;;;;;;4.47;2.70;;;10.30;99.90;;;;;;4991640;28;20050;-72
2022/03/15 11:09:29;;;;;;;5.00;2.42;;;10.30;99.90;;;;;;4976810;28;20463;-72
2022/03/15 11:12:05;;;;;;;3.58;2.30;;;10.30;99.90;;;;;;4980112;28;20561;-73
2022/03/15 11:14:55;;;;;;;3.17;2.30;;;10.40;99.90;;;;;;4992366;28;20042;-72
2022/03/15 11:17:27;;;;;;;3.40;2.30;;;10.40;99.90;;;;;;4993007;28;20412;-72
2022/03/15 11:20:00;;;;;;;6.80;2.13;;;10.30;99.90;;;;;;4992642;28;20040;-72
2022/03/15 11:22:34;;;;;;;2.90;2.03;;;10.30;99.90;;;;;;4991150;28;20058;-72
2022/03/15 11:25:12;;;;;;;3.35;2.40;;;10.40;99.90;;;;;;4962572;28;20049;-72
2022/03/15 11:27:45;;;;;;;2.58;2.05;;;10.40;99.90;;;;;;4988993;28;20042;-72
2022/03/15 11:30:20;;;;;;;3.15;2.13;;;10.40;99.90;;;;;;4991330;28;20046;-72
2022/03/15 11:32:53;;;;;;;3.38;2.10;;;10.30;99.90;;;;;;5006777;28;20046;-73
2022/03/15 11:35:26;;;;;;;2.35;2.15;;;10.30;99.90;;;;;;4982829;28;20039;-72
2022/03/15 11:38:00;;;;;;;4.83;2.37;;;10.30;99.90;;;;;;4990951;28;20048;-72
2022/03/15 11:40:31;;;;;;;;;;;10.30;99.90;;;;;;4995382;28;20117;-72
2022/03/15 11:43:35;;;;;;;2.95;2.17;;;10.30;99.90;;;;;;4999763;28;19957;-73
2022/03/15 11:46:17;;;;;;;3.55;2.13;;;10.30;99.90;;;;;;4992051;28;20470;-72
2022/03/15 11:49:13;;;;;;;3.60;2.50;;;10.30;99.90;;;;;;4982052;28;20034;-72
2022/03/15 11:52:18;;;;;;;4.55;2.75;;;10.30;99.90;;;;;;4993111;28;20500;-72
2022/03/15 11:55:10;;;;;;;3.05;2.17;;;10.20;99.90;;;;;;5003374;28;20462;-72
2022/03/15 11:57:51;;;;;;;5.82;3.00;;;10.20;99.90;;;;;;4990169;28;20515;-72
2022/03/15 12:00:38;;;;;;;2.70;1.90;;;10.10;99.90;;;;;;4986718;28;20045;-72
2022/03/15 12:03:18;;;;;;;2.75;1.90;;;10.10;99.90;;;;;;4987491;28;20425;-72
2022/03/15 12:05:57;;;;;;;3.25;2.30;;;10.10;99.90;;;;;;4971718;28;20133;-72
2022/03/15 12:08:29;;;;;;;3.75;2.45;;;10.00;99.90;;;;;;4974233;28;20560;-72
2022/03/15 12:11:05;;;;;;;4.78;2.95;;;10.00;99.90;;;;;;5006170;28;20125;-72
2022/03/15 12:13:41;;;;;;;11.65;4.30;;;10.00;99.90;;;;;;4994402;28;20046;-72
2022/03/15 12:16:27;;;;;;;7.70;2.47;;;10.00;99.90;;;;;;4989519;28;20045;-72
2022/03/15 12:19:23;;;;;;;9.18;3.40;;;10.00;99.90;;;;;;4974542;28;20046;-72
2022/03/15 12:21:57;;;;;;;4.68;2.72;;;10.00;99.90;;;;;;4990515;28;20474;-72
2022/03/15 12:24:42;;;;;;;3.45;2.67;;;10.00;99.90;;;;;;4990426;28;20129;-72
2022/03/15 12:27:20;;;;;;;12.38;7.57;;;10.00;99.90;;;;;;4991827;28;20053;-72
2022/03/15 12:29:53;;;;;;;7.72;4.72;;;10.00;99.90;;;;;;4987944;28;20385;-72
2022/03/15 12:32:26;;;;;;;9.43;5.63;;;10.00;99.90;;;;;;4977677;28;20044;-72
2022/03/15 12:34:58;;;;;;;14.53;6.07;;;10.00;99.90;;;;;;4981623;28;20509;-72
2022/03/15 12:37:37;;;;;;;6.82;4.45;;;10.00;99.90;;;;;;5012920;28;20638;-72
2022/03/15 12:40:10;;;;;;;7.43;4.30;;;10.00;99.90;;;;;;4994249;28;20117;-72
2022/03/15 12:42:53;;;;;;;8.05;4.75;;;10.00;99.90;;;;;;4979331;28;20034;-72
2022/03/15 12:45:25;;;;;;;10.57;4.27;;;10.00;99.90;;;;;;5002195;28;20049;-72
2022/03/15 12:48:06;;;;;;;7.68;4.43;;;9.90;99.90;;;;;;4990360;28;20137;-72
2022/03/15 12:50:38;;;;;;;5.35;4.13;;;9.90;99.90;;;;;;4991977;28;20050;-72
2022/03/15 12:53:14;;;;;;;5.50;3.30;;;9.90;99.90;;;;;;4989577;28;20085;-72
2022/03/15 12:55:46;;;;;;;5.90;2.90;;;9.90;99.90;;;;;;4970408;28;20696;-72
2022/03/15 12:58:18;;;;;;;5.70;3.22;;;9.80;99.90;;;;;;4986360;28;20038;-72
2022/03/15 13:00:52;;;;;;;4.80;2.97;;;9.70;99.90;;;;;;4988548;28;20817;-72
2022/03/15 13:03:24;;;;;;;6.35;2.90;;;9.70;99.90;;;;;;4984728;28;20197;-72
2022/03/15 13:05:57;;;;;;;5.00;3.28;;;9.70;99.90;;;;;;5007233;28;20064;-71
2022/03/15 13:08:31;;;;;;;;;;;9.60;99.90;;;;;;4999343;28;20049;-72
2022/03/15 13:11:06;;;;;;;5.75;4.40;;;9.60;99.90;;;;;;4982984;28;19922;-73
2022/03/15 13:13:38;;;;;;;5.18;4.25;;;9.60;99.90;;;;;;5005266;28;20038;-72
2022/03/15 13:16:09;;;;;;;5.82;4.78;;;9.60;99.90;;;;;;4975229;28;20509;-73
2022/03/15 13:18:42;;;;;;;7.70;5.25;;;9.50;99.90;;;;;;4992520;28;20058;-72
2022/03/15 13:21:15;;;;;;;9.88;5.65;;;9.50;99.90;;;;;;4992900;28;20137;-73
2022/03/15 13:23:50;;;;;;;7.93;5.60;;;9.40;99.90;;;;;;5009844;28;20042;-73